Time;durP1;ratioP1;P1;durP2;ratioP2;P2;SDS_P1;SDS_P2;PMS_P1;PMS_P2;Temp;Humidity;BMP_temperature;BMP_pressure;BME280_temperature;BME280_humidity;BME280_pressure;Samples;Min_cycle;Max_cycle;Signal;HPM_P1;HPM_P2
2022/07/17 00:01:48;;;;;;;6.20;2.67;;;16.10;99.90;;;;;;5035257;28;20472;-48
2022/07/17 00:04:15;;;;;;;5.90;2.20;;;16.10;99.90;;;;;;5035232;28;20621;-53
2022/07/17 00:06:43;;;;;;;10.63;2.00;;;16.00;99.90;;;;;;5034828;28;20468;-51
2022/07/17 00:09:10;;;;;;;4.20;1.70;;;16.00;99.90;;;;;;5035353;28;20937;-47
2022/07/17 00:11:37;;;;;;;2.80;1.33;;;16.00;99.90;;;;;;5035507;28;20418;-53
2022/07/17 00:14:04;;;;;;;2.73;1.20;;;16.00;99.90;;;;;;5035258;28;20537;-50
2022/07/17 00:16:31;;;;;;;6.23;2.00;;;15.90;99.90;;;;;;5034904;28;20437;-55
2022/07/17 00:18:58;;;;;;;4.73;1.63;;;15.80;99.90;;;;;;5035652;28;20463;-49
2022/07/17 00:21:25;;;;;;;7.80;1.47;;;15.80;99.90;;;;;;5029177;28;20472;-53
2022/07/17 00:23:53;;;;;;;3.70;1.67;;;15.80;99.90;;;;;;5035576;28;20564;-55
2022/07/17 00:26:20;;;;;;;3.27;1.40;;;15.70;99.90;;;;;;5034743;28;20510;-51
2022/07/17 00:28:47;;;;;;;2.13;1.50;;;15.70;99.90;;;;;;5034879;28;20527;-55
2022/07/17 00:31:14;;;;;;;3.97;1.30;;;15.70;99.90;;;;;;5035241;28;20480;-48
2022/07/17 00:33:41;;;;;;;2.23;1.33;;;15.70;99.90;;;;;;5035444;28;20453;-51
2022/07/17 00:36:08;;;;;;;4.67;1.40;;;15.70;99.90;;;;;;5034610;28;20500;-50
2022/07/17 00:38:35;;;;;;;6.30;2.30;;;15.70;99.90;;;;;;5034760;28;20521;-52
2022/07/17 00:41:03;;;;;;;4.03;1.47;;;15.60;99.90;;;;;;5035394;28;20500;-53
2022/07/17 00:43:30;;;;;;;3.17;1.20;;;15.60;99.90;;;;;;5034581;28;20517;-52
2022/07/17 00:45:59;;;;;;;2.70;1.90;;;15.60;99.90;;;;;;5034838;28;20468;-53
2022/07/17 00:48:28;;;;;;;6.40;2.13;;;15.50;99.90;;;;;;5035014;28;21036;-48
2022/07/17 00:50:55;;;;;;;2.90;1.23;;;15.50;99.90;;;;;;5035130;28;20507;-53
2022/07/17 00:53:23;;;;;;;4.20;1.37;;;15.50;99.90;;;;;;5034276;28;20512;-54
2022/07/17 00:55:51;;;;;;;4.80;1.13;;;15.50;99.90;;;;;;5034771;28;20437;-54
2022/07/17 00:58:23;;;;;;;5.53;1.40;;;15.50;99.90;;;;;;5034649;28;20440;-51
2022/07/17 01:00:52;;;;;;;7.03;1.50;;;15.50;99.90;;;;;;5034613;28;20436;-52
2022/07/17 01:03:21;;;;;;;4.93;2.10;;;15.50;99.90;;;;;;5034502;28;20520;-50
2022/07/17 01:05:48;;;;;;;1.90;1.50;;;15.40;99.90;;;;;;5038221;28;20448;-53
2022/07/17 01:08:15;;;;;;;3.00;1.80;;;15.50;99.90;;;;;;5037747;28;20499;-53
2022/07/17 01:10:42;;;;;;;5.50;1.47;;;15.40;99.90;;;;;;5037887;28;20428;-52
2022/07/17 01:13:09;;;;;;;3.20;1.67;;;15.40;99.90;;;;;;5037919;28;20455;-57
2022/07/17 01:15:42;;;;;;;5.47;1.43;;;15.40;99.90;;;;;;5037674;28;20481;-51
2022/07/17 01:18:10;;;;;;;4.57;2.03;;;15.40;99.90;;;;;;5038247;28;21027;-47
2022/07/17 01:20:38;;;;;;;4.90;2.03;;;15.40;99.90;;;;;;5037945;28;20421;-53
2022/07/17 01:23:07;;;;;;;6.67;2.77;;;15.30;99.90;;;;;;5037564;28;20448;-52
2022/07/17 01:25:35;;;;;;;7.93;1.60;;;15.30;99.90;;;;;;5037573;28;20472;-56
2022/07/17 01:28:02;;;;;;;4.93;1.73;;;15.30;99.90;;;;;;5037407;28;20508;-50
2022/07/17 01:30:29;;;;;;;6.60;1.57;;;15.20;99.90;;;;;;5037499;28;20460;-55
2022/07/17 01:33:00;;;;;;;2.50;1.23;;;15.20;99.90;;;;;;5038120;28;20441;-52
2022/07/17 01:35:29;;;;;;;2.20;1.53;;;15.10;99.90;;;;;;5037712;28;20520;-54
2022/07/17 01:37:58;;;;;;;4.63;1.43;;;15.10;99.90;;;;;;5037435;28;20464;-52
2022/07/17 01:40:26;;;;;;;5.83;1.20;;;15.10;99.90;;;;;;5037338;28;20473;-50
2022/07/17 01:42:53;;;;;;;3.03;1.37;;;15.00;99.90;;;;;;5037422;28;20464;-55
2022/07/17 01:45:20;;;;;;;3.63;1.40;;;15.00;99.90;;;;;;5037498;28;20489;-50
2022/07/17 01:47:48;;;;;;;4.90;2.50;;;15.00;99.90;;;;;;5038090;28;20448;-50
2022/07/17 01:50:15;;;;;;;3.10;1.40;;;14.90;99.90;;;;;;5037638;28;20556;-54
2022/07/17 01:52:44;;;;;;;3.00;1.37;;;14.90;99.90;;;;;;5037450;28;20455;-53
2022/07/17 01:55:15;;;;;;;4.50;2.27;;;14.90;99.90;;;;;;5037900;28;20809;-47
2022/07/17 01:57:47;;;;;;;3.27;1.53;;;14.90;99.90;;;;;;5037367;28;20437;-56
2022/07/17 02:00:17;;;;;;;5.93;1.40;;;14.90;99.90;;;;;;5037149;28;20475;-49
2022/07/17 02:02:44;;;;;;;3.27;1.83;;;14.90;99.90;;;;;;5037148;28;20814;-51
2022/07/17 02:05:11;;;;;;;4.80;1.60;;;14.80;99.90;;;;;;5037379;28;20500;-48
2022/07/17 02:07:40;;;;;;;5.10;1.30;;;14.80;99.90;;;;;;5037610;28;20438;-53
2022/07/17 02:10:13;;;;;;;2.93;1.53;;;14.70;99.90;;;;;;5036963;28;20461;-55
2022/07/17 02:12:40;;;;;;;4.00;1.50;;;14.60;99.90;;;;;;5037311;28;20425;-49
2022/07/17 02:15:09;;;;;;;2.63;1.53;;;14.50;99.90;;;;;;5036601;28;20481;-50
2022/07/17 02:17:36;;;;;;;10.90;2.03;;;14.40;99.90;;;;;;5035616;28;20449;-53
2022/07/17 02:20:03;;;;;;;2.10;1.30;;;14.40;99.90;;;;;;5036827;28;20450;-50
2022/07/17 02:22:30;;;;;;;4.60;1.30;;;14.40;99.90;;;;;;5037667;28;20449;-51
2022/07/17 02:24:57;;;;;;;2.00;1.50;;;14.30;99.90;;;;;;5036084;28;20492;-56
2022/07/17 02:27:24;;;;;;;3.67;1.57;;;14.30;99.90;;;;;;5035777;28;20495;-52
2022/07/17 02:29:53;;;;;;;2.43;1.57;;;14.30;99.90;;;;;;5035968;28;20501;-54
2022/07/17 02:32:21;;;;;;;2.80;1.53;;;14.30;99.90;;;;;;5025751;28;20887;-52
2022/07/17 02:34:48;;;;;;;5.23;1.63;;;14.30;99.90;;;;;;5036890;28;20492;-50
2022/07/17 02:37:22;;;;;;;4.90;1.70;;;14.20;99.90;;;;;;5036569;28;20500;-54
2022/07/17 02:39:58;;;;;;;3.53;1.40;;;14.20;99.90;;;;;;5036514;28;20429;-50
2022/07/17 02:42:30;;;;;;;6.00;1.67;;;14.20;99.90;;;;;;5036414;28;20444;-53
2022/07/17 02:44:58;;;;;;;2.63;1.40;;;14.20;99.90;;;;;;5036227;28;20489;-54
2022/07/17 02:47:32;;;;;;;6.97;1.90;;;14.10;99.90;;;;;;5037068;28;20441;-48
2022/07/17 02:50:01;;;;;;;6.83;1.50;;;14.10;99.90;;;;;;5027569;28;20429;-53
2022/07/17 02:52:28;;;;;;;3.50;1.40;;;14.10;99.90;;;;;;5026558;28;20434;-52
2022/07/17 02:54:55;;;;;;;3.30;2.03;;;14.00;99.90;;;;;;5036037;28;20437;-51
2022/07/17 02:57:22;;;;;;;4.70;1.30;;;13.90;99.90;;;;;;5030346;28;20536;-56
2022/07/17 02:59:48;;;;;;;11.13;2.27;;;14.00;99.90;;;;;;5033275;28;20437;-49
2022/07/17 03:02:15;;;;;;;1.80;1.17;;;14.00;99.90;;;;;;5036255;28;20508;-50
2022/07/17 03:04:46;;;;;;;2.87;1.47;;;13.90;99.90;;;;;;5035227;28;20588;-51
2022/07/17 03:07:13;;;;;;;3.10;1.60;;;13.90;99.90;;;;;;5036211;28;20418;-53
2022/07/17 03:09:40;;;;;;;4.10;1.73;;;13.80;99.90;;;;;;5036048;28;20430;-49
2022/07/17 03:12:07;;;;;;;7.70;1.60;;;13.80;99.90;;;;;;5035441;28;20492;-55
2022/07/17 03:14:36;;;;;;;4.83;1.77;;;13.80;99.90;;;;;;5034864;28;20445;-55
2022/07/17 03:17:03;;;;;;;2.97;1.23;;;13.80;99.90;;;;;;5032481;28;20469;-55
2022/07/17 03:19:30;;;;;;;5.80;2.07;;;13.90;99.90;;;;;;5030410;28;20544;-56
2022/07/17 03:21:58;;;;;;;1.80;1.33;;;13.80;99.90;;;;;;5035688;28;20503;-52
2022/07/17 03:24:25;;;;;;;3.43;1.57;;;13.80;99.90;;;;;;5036417;28;20542;-54
2022/07/17 03:26:52;;;;;;;5.03;1.60;;;13.80;99.90;;;;;;5029272;28;20559;-55
2022/07/17 03:29:19;;;;;;;1.57;1.13;;;13.80;99.90;;;;;;5032790;28;20449;-50
2022/07/17 03:31:46;;;;;;;3.13;1.40;;;13.70;99.90;;;;;;5035912;28;20520;-54
2022/07/17 03:34:13;;;;;;;1.37;1.13;;;13.70;99.90;;;;;;5035267;28;20761;-51
2022/07/17 03:36:40;;;;;;;3.93;1.40;;;13.70;99.90;;;;;;5035250;28;20522;-51
2022/07/17 03:39:10;;;;;;;3.97;1.53;;;13.60;99.90;;;;;;5026815;28;20445;-52
2022/07/17 03:41:38;;;;;;;3.70;1.30;;;13.60;99.90;;;;;;5035353;28;20576;-54
2022/07/17 03:44:05;;;;;;;6.43;1.50;;;13.60;99.90;;;;;;5034953;28;20441;-52
2022/07/17 03:46:32;;;;;;;3.27;1.70;;;13.60;99.90;;;;;;5035300;28;20473;-55
2022/07/17 03:48:59;;;;;;;3.17;1.47;;;13.60;99.90;;;;;;5034824;28;20456;-52
2022/07/17 03:51:28;;;;;;;13.07;1.53;;;13.60;99.90;;;;;;5034592;28;20469;-49
2022/07/17 03:53:57;;;;;;;5.33;1.20;;;13.70;99.90;;;;;;5034685;28;20445;-50
2022/07/17 03:56:25;;;;;;;2.33;1.50;;;13.70;99.90;;;;;;5033940;28;20445;-53
2022/07/17 03:58:53;;;;;;;2.87;1.60;;;13.70;99.90;;;;;;5035067;28;20425;-52
2022/07/17 04:01:22;;;;;;;7.70;1.77;;;13.70;99.90;;;;;;5034747;28;20445;-51
2022/07/17 04:03:49;;;;;;;6.27;1.60;;;13.70;99.90;;;;;;5036044;28;20469;-49
2022/07/17 04:06:16;;;;;;;5.43;1.77;;;13.70;99.90;;;;;;5035720;28;20487;-50
2022/07/17 04:08:43;;;;;;;6.47;1.93;;;13.70;99.90;;;;;;5034603;28;20445;-54
2022/07/17 04:11:10;;;;;;;5.53;1.70;;;13.70;99.90;;;;;;5035440;28;20504;-50
2022/07/17 04:13:44;;;;;;;2.63;1.27;;;13.70;99.90;;;;;;5026448;28;20445;-48
2022/07/17 04:16:11;;;;;;;3.37;1.30;;;13.60;99.90;;;;;;5034487;28;20467;-48
2022/07/17 04:18:39;;;;;;;2.80;1.47;;;13.70;99.90;;;;;;5034514;28;20456;-49
2022/07/17 04:21:07;;;;;;;8.17;1.60;;;13.70;99.90;;;;;;5035111;28;20483;-51
2022/07/17 04:23:34;;;;;;;6.03;1.70;;;13.70;99.90;;;;;;5033563;28;20472;-50
2022/07/17 04:26:02;;;;;;;7.00;2.27;;;13.70;99.90;;;;;;5033766;28;20551;-52
2022/07/17 04:28:28;;;;;;;9.00;1.50;;;13.70;99.90;;;;;;5034004;28;20449;-53
2022/07/17 04:30:57;;;;;;;2.23;1.20;;;13.70;99.90;;;;;;5033675;28;20467;-51
2022/07/17 04:33:23;;;;;;;3.40;1.17;;;13.70;99.90;;;;;;5030753;28;20457;-53
2022/07/17 04:35:50;;;;;;;2.57;1.30;;;13.70;99.90;;;;;;5031130;28;20444;-52
2022/07/17 04:38:17;;;;;;;5.40;1.50;;;13.80;99.90;;;;;;5035052;28;20445;-49
2022/07/17 04:40:48;;;;;;;3.67;1.67;;;13.90;99.90;;;;;;5037832;28;20475;-55
2022/07/17 04:43:15;;;;;;;1.70;1.20;;;13.90;99.90;;;;;;5038229;28;20475;-52
2022/07/17 04:45:45;;;;;;;2.90;1.70;;;14.00;99.90;;;;;;5038572;28;20487;-57
2022/07/17 04:48:16;;;;;;;3.87;2.07;;;14.00;99.90;;;;;;5038265;28;20563;-49
2022/07/17 04:50:43;;;;;;;5.37;1.87;;;14.10;99.90;;;;;;5038457;28;20464;-55
2022/07/17 04:53:18;;;;;;;6.03;1.80;;;14.10;99.90;;;;;;5038559;28;20497;-52
2022/07/17 04:55:45;;;;;;;1.30;0.90;;;14.10;99.90;;;;;;5039110;28;20488;-53
2022/07/17 04:58:12;;;;;;;1.87;1.07;;;14.10;99.90;;;;;;5038328;28;20536;-53
2022/07/17 05:00:39;;;;;;;7.63;2.30;;;14.20;99.90;;;;;;5038274;28;20461;-49
2022/07/17 05:03:06;;;;;;;6.93;2.23;;;14.30;99.90;;;;;;5038180;28;20547;-54
2022/07/17 05:05:34;;;;;;;3.67;1.70;;;14.50;99.90;;;;;;5037304;28;20480;-53
2022/07/17 05:08:01;;;;;;;4.60;1.50;;;14.50;99.90;;;;;;5037757;28;20469;-53
2022/07/17 05:10:28;;;;;;;9.50;1.77;;;14.60;99.90;;;;;;5037674;28;20459;-53
2022/07/17 05:12:55;;;;;;;4.63;1.60;;;14.60;99.90;;;;;;5038121;28;20448;-50
2022/07/17 05:15:22;;;;;;;4.60;1.20;;;14.60;99.90;;;;;;5037596;28;20417;-53
2022/07/17 05:17:48;;;;;;;2.80;1.83;;;14.70;99.90;;;;;;5037906;28;20440;-52
2022/07/17 05:20:15;;;;;;;2.97;1.40;;;14.70;99.90;;;;;;5037709;28;20413;-55
2022/07/17 05:22:43;;;;;;;1.33;1.20;;;14.80;99.90;;;;;;5030487;28;20506;-53
2022/07/17 05:25:12;;;;;;;2.07;1.20;;;14.80;99.90;;;;;;5037675;28;20524;-57
2022/07/17 05:27:39;;;;;;;3.93;1.40;;;14.80;99.90;;;;;;5037152;28;20480;-49
2022/07/17 05:30:06;;;;;;;4.47;1.30;;;14.90;99.90;;;;;;5037641;28;20517;-54
2022/07/17 05:32:33;;;;;;;2.80;1.60;;;14.90;99.90;;;;;;5037133;28;20453;-53
2022/07/17 05:35:00;;;;;;;14.27;3.33;;;15.00;99.90;;;;;;5037956;28;20472;-50
2022/07/17 05:37:27;;;;;;;4.30;1.70;;;15.00;99.90;;;;;;5032281;28;20505;-47
2022/07/17 05:39:55;;;;;;;4.37;1.90;;;15.10;99.90;;;;;;5038167;28;20523;-56
2022/07/17 05:42:22;;;;;;;6.03;1.50;;;15.10;99.90;;;;;;5037894;28;20461;-53
2022/07/17 05:44:49;;;;;;;2.87;1.77;;;15.10;99.90;;;;;;5037607;28;20489;-52
2022/07/17 05:47:16;;;;;;;4.07;1.90;;;15.10;99.90;;;;;;5037856;28;20425;-53
2022/07/17 05:49:42;;;;;;;12.90;1.77;;;15.10;99.90;;;;;;5037403;28;20563;-54
2022/07/17 05:52:09;;;;;;;4.17;1.67;;;15.10;99.90;;;;;;5027037;28;20441;-55
2022/07/17 05:54:39;;;;;;;8.40;2.33;;;15.10;99.90;;;;;;5036107;28;20483;-51
2022/07/17 05:57:08;;;;;;;4.87;1.93;;;15.10;99.90;;;;;;5036731;28;20477;-52
2022/07/17 05:59:35;;;;;;;3.20;1.53;;;15.20;99.90;;;;;;5036684;28;20469;-55
2022/07/17 06:02:02;;;;;;;12.83;2.07;;;15.30;99.90;;;;;;5036735;28;20448;-53
2022/07/17 06:04:29;;;;;;;8.13;1.60;;;15.40;99.90;;;;;;5036934;28;20465;-54
2022/07/17 06:06:57;;;;;;;5.17;1.30;;;15.50;99.90;;;;;;5036855;28;20612;-54
2022/07/17 06:09:24;;;;;;;11.90;1.73;;;15.60;99.90;;;;;;5036773;28;20465;-54
2022/07/17 06:11:52;;;;;;;3.33;1.70;;;15.60;99.90;;;;;;5037642;28;20451;-51
2022/07/17 06:14:20;;;;;;;6.17;1.50;;;15.70;99.90;;;;;;5037611;28;20477;-54
2022/07/17 06:16:47;;;;;;;6.90;1.87;;;15.80;99.90;;;;;;5036537;28;20440;-52
2022/07/17 06:19:14;;;;;;;3.93;1.87;;;15.90;99.90;;;;;;5036535;28;20493;-49
2022/07/17 06:21:40;;;;;;;1.60;1.07;;;15.90;99.90;;;;;;5036721;28;20512;-52
2022/07/17 06:24:07;;;;;;;4.00;1.70;;;16.00;99.90;;;;;;5036535;28;20473;-49
2022/07/17 06:26:34;;;;;;;2.70;1.20;;;16.10;99.90;;;;;;5036605;28;20503;-50
2022/07/17 06:29:01;;;;;;;2.67;1.30;;;16.20;99.90;;;;;;5036747;28;20819;-51
2022/07/17 06:31:29;;;;;;;2.80;1.60;;;16.30;99.90;;;;;;5036266;28;20448;-54
2022/07/17 06:33:56;;;;;;;3.20;1.70;;;16.40;99.90;;;;;;5036318;28;20441;-52
2022/07/17 06:36:22;;;;;;;5.67;1.50;;;16.40;99.90;;;;;;5036170;28;20430;-50
2022/07/17 06:38:49;;;;;;;3.30;1.10;;;16.50;99.90;;;;;;5036296;28;20445;-55
2022/07/17 06:41:16;;;;;;;2.37;1.50;;;16.60;99.90;;;;;;5025826;28;20509;-55
2022/07/17 06:43:43;;;;;;;3.63;1.33;;;16.80;99.90;;;;;;5036732;28;20443;-54
2022/07/17 06:46:10;;;;;;;6.80;1.60;;;16.80;99.90;;;;;;5036166;28;20477;-50
2022/07/17 06:48:38;;;;;;;2.40;1.10;;;16.90;99.90;;;;;;5026330;28;20453;-51
2022/07/17 06:51:05;;;;;;;9.30;2.90;;;17.00;99.90;;;;;;5036942;28;20516;-53
2022/07/17 06:53:32;;;;;;;7.03;1.53;;;17.10;99.90;;;;;;5037426;28;20449;-54
2022/07/17 06:55:59;;;;;;;4.63;1.60;;;17.00;99.90;;;;;;5036629;28;20500;-49
2022/07/17 06:58:25;;;;;;;2.53;1.20;;;17.20;99.90;;;;;;5037468;28;20514;-53
2022/07/17 07:00:52;;;;;;;3.07;1.43;;;17.30;99.90;;;;;;5036995;28;20461;-53
2022/07/17 07:03:21;;;;;;;8.00;1.23;;;17.30;99.90;;;;;;5036733;28;20477;-49
2022/07/17 07:05:50;;;;;;;3.50;1.40;;;17.30;99.90;;;;;;5035767;28;20499;-54
2022/07/17 07:08:17;;;;;;;1.40;1.10;;;17.30;99.90;;;;;;5036493;28;20465;-56
2022/07/17 07:10:44;;;;;;;2.60;1.33;;;17.30;99.90;;;;;;5036388;28;20464;-55
2022/07/17 07:13:12;;;;;;;2.40;1.90;;;17.30;99.90;;;;;;5035740;28;20414;-52
2022/07/17 07:15:39;;;;;;;2.33;1.47;;;17.40;99.90;;;;;;5035550;28;20537;-55
2022/07/17 07:18:06;;;;;;;3.50;1.40;;;17.50;99.90;;;;;;5036081;28;20495;-52
2022/07/17 07:20:39;;;;;;;3.70;1.63;;;17.50;99.90;;;;;;5035971;28;20488;-53
2022/07/17 07:23:07;;;;;;;2.63;1.53;;;17.70;99.90;;;;;;5035957;28;20505;-50
2022/07/17 07:25:34;;;;;;;2.20;1.33;;;17.80;99.90;;;;;;5035799;28;20503;-54
2022/07/17 07:28:01;;;;;;;2.47;1.50;;;17.70;99.90;;;;;;5034391;28;20516;-56
2022/07/17 07:30:28;;;;;;;4.73;1.47;;;17.60;99.90;;;;;;5026985;28;20469;-51
2022/07/17 07:32:54;;;;;;;3.47;1.53;;;17.70;99.90;;;;;;5035838;28;20532;-53
2022/07/17 07:35:22;;;;;;;2.07;1.47;;;17.70;99.90;;;;;;5035485;28;20496;-53
2022/07/17 07:37:49;;;;;;;3.57;1.87;;;17.80;99.90;;;;;;5035951;28;20433;-50
2022/07/17 07:40:17;;;;;;;5.33;1.60;;;17.90;99.90;;;;;;5027620;28;20469;-51
2022/07/17 07:42:44;;;;;;;4.23;1.47;;;17.90;99.90;;;;;;5036002;28;20497;-58
2022/07/17 07:45:11;;;;;;;5.60;1.53;;;18.00;99.90;;;;;;5035893;28;20441;-49
2022/07/17 07:47:43;;;;;;;4.70;1.47;;;18.40;99.90;;;;;;5035943;28;20480;-53
2022/07/17 07:50:10;;;;;;;3.00;1.63;;;18.50;99.90;;;;;;5035423;28;20511;-50
2022/07/17 07:52:37;;;;;;;3.40;1.37;;;18.60;99.90;;;;;;5035569;28;20491;-52
2022/07/17 07:55:05;;;;;;;3.50;1.33;;;18.50;99.90;;;;;;5035629;28;20452;-52
2022/07/17 07:57:33;;;;;;;5.10;1.60;;;18.20;99.90;;;;;;5035920;28;20410;-50
2022/07/17 08:00:00;;;;;;;3.40;1.90;;;17.90;99.90;;;;;;5034896;28;20460;-54
2022/07/17 08:02:27;;;;;;;2.73;1.50;;;17.80;99.90;;;;;;5035017;28;20521;-52
2022/07/17 08:04:54;;;;;;;5.50;1.60;;;17.70;99.90;;;;;;5035337;28;20489;-53
2022/07/17 08:07:21;;;;;;;4.67;2.57;;;17.70;99.90;;;;;;5023836;28;20483;-53
2022/07/17 08:09:48;;;;;;;7.20;2.37;;;17.70;99.90;;;;;;5034577;28;20436;-51
2022/07/17 08:12:16;;;;;;;8.87;2.30;;;17.80;99.90;;;;;;5035592;28;20487;-50
2022/07/17 08:14:45;;;;;;;5.50;1.57;;;17.70;99.90;;;;;;5034789;28;20425;-52
2022/07/17 08:17:12;;;;;;;4.60;1.80;;;17.70;99.90;;;;;;5035506;28;20520;-54
2022/07/17 08:19:38;;;;;;;5.70;1.77;;;17.80;99.90;;;;;;5035725;28;20512;-49
2022/07/17 08:22:07;;;;;;;3.20;1.50;;;17.80;99.90;;;;;;5035527;28;20469;-53
2022/07/17 08:24:34;;;;;;;10.07;2.03;;;18.20;99.90;;;;;;5035717;28;20440;-48
2022/07/17 08:27:00;;;;;;;8.07;1.70;;;18.70;99.90;;;;;;5035753;28;20500;-54
2022/07/17 08:29:27;;;;;;;6.90;1.43;;;19.20;99.90;;;;;;5035649;28;20477;-50
2022/07/17 08:31:55;;;;;;;6.20;1.30;;;19.90;99.90;;;;;;5036001;28;20500;-48
2022/07/17 08:34:22;;;;;;;4.50;1.70;;;20.60;99.90;;;;;;5025071;28;20909;-55
2022/07/17 08:36:50;;;;;;;2.93;1.73;;;20.90;99.90;;;;;;5036430;28;20540;-51
2022/07/17 08:39:18;;;;;;;7.40;1.80;;;21.30;99.90;;;;;;5036291;28;20437;-52
2022/07/17 08:41:46;;;;;;;4.20;2.23;;;22.00;98.80;;;;;;5036049;28;20455;-51
2022/07/17 08:44:12;;;;;;;2.40;1.87;;;22.30;96.90;;;;;;5035625;28;20445;-54
2022/07/17 08:46:40;;;;;;;5.17;2.13;;;22.80;97.10;;;;;;5034891;28;20557;-46
2022/07/17 08:49:08;;;;;;;3.87;1.90;;;22.90;93.50;;;;;;5036105;28;20440;-46
2022/07/17 08:51:36;;;;;;;2.70;1.40;;;22.50;93.00;;;;;;5035073;28;20500;-50
2022/07/17 08:54:03;;;;;;;3.47;1.40;;;22.40;93.10;;;;;;5024316;28;20505;-53
2022/07/17 08:56:30;;;;;;;4.93;3.07;;;22.20;93.20;;;;;;5028396;28;20481;-54
2022/07/17 08:59:01;;;;;;;7.00;2.20;;;22.00;94.50;;;;;;5031457;28;20459;-51
2022/07/17 09:01:28;;;;;;;7.37;1.40;;;21.90;94.30;;;;;;5035495;28;20418;-50
2022/07/17 09:03:58;;;;;;;1.50;1.30;;;21.80;94.10;;;;;;5035397;28;20425;-52
2022/07/17 09:06:26;;;;;;;7.80;1.47;;;21.40;94.30;;;;;;5034920;28;20465;-52
2022/07/17 09:09:04;;;;;;;3.53;1.57;;;20.90;95.50;;;;;;5035015;28;20493;-54
2022/07/17 09:11:42;;;;;;;3.93;2.87;;;20.80;96.30;;;;;;5034899;28;20512;-46
2022/07/17 09:14:09;;;;;;;5.93;2.13;;;20.90;96.30;;;;;;5035309;28;20508;-51
2022/07/17 09:16:37;;;;;;;3.27;2.03;;;21.00;97.00;;;;;;5035140;28;20469;-54
2022/07/17 09:19:04;;;;;;;3.90;1.67;;;21.30;95.90;;;;;;5035014;28;20445;-51
2022/07/17 09:21:32;;;;;;;4.40;1.80;;;21.40;95.10;;;;;;5034954;28;20440;-52
2022/07/17 09:24:00;;;;;;;2.27;1.50;;;21.40;94.20;;;;;;5035127;28;20536;-52
2022/07/17 09:26:28;;;;;;;9.83;1.80;;;21.60;94.90;;;;;;5037682;28;20576;-49
2022/07/17 09:28:55;;;;;;;4.03;1.70;;;22.20;94.30;;;;;;5038765;28;20460;-52
2022/07/17 09:31:26;;;;;;;6.10;1.63;;;22.80;92.90;;;;;;5037627;28;20445;-47
2022/07/17 09:33:53;;;;;;;3.23;1.93;;;22.90;91.80;;;;;;5038526;28;20456;-52
2022/07/17 09:36:22;;;;;;;6.17;1.60;;;22.80;90.40;;;;;;5038829;28;20465;-48
2022/07/17 09:38:54;;;;;;;3.30;3.10;;;22.50;90.50;;;;;;5038894;28;20453;-49
2022/07/17 09:41:24;;;;;;;3.40;1.80;;;22.20;90.80;;;;;;5038690;28;20492;-49
2022/07/17 09:43:53;;;;;;;4.70;2.00;;;22.10;91.40;;;;;;5038951;28;20501;-48
2022/07/17 09:46:21;;;;;;;2.97;2.53;;;22.00;90.30;;;;;;5038477;28;20492;-51
2022/07/17 09:48:50;;;;;;;3.57;1.63;;;21.60;90.50;;;;;;5038049;28;20481;-49
2022/07/17 09:51:18;;;;;;;3.50;2.00;;;21.10;91.60;;;;;;5038066;28;20453;-48
2022/07/17 09:53:47;;;;;;;5.17;1.60;;;20.70;92.70;;;;;;5037799;28;20472;-51
2022/07/17 09:56:18;;;;;;;4.00;1.47;;;20.60;93.60;;;;;;5037654;28;20559;-48
2022/07/17 09:58:49;;;;;;;5.07;1.80;;;20.50;93.80;;;;;;5037989;28;20540;-55
2022/07/17 10:01:17;;;;;;;2.07;1.50;;;20.40;94.80;;;;;;5037638;28;20428;-49
2022/07/17 10:03:45;;;;;;;6.47;1.83;;;20.40;95.00;;;;;;5037288;28;20528;-49
2022/07/17 10:06:12;;;;;;;2.03;1.63;;;20.60;94.70;;;;;;5036928;28;20539;-49
2022/07/17 10:08:40;;;;;;;4.07;1.60;;;20.90;95.20;;;;;;5026401;28;20572;-51
2022/07/17 10:11:08;;;;;;;4.10;2.20;;;21.20;94.10;;;;;;5031433;28;20536;-53
2022/07/17 10:13:39;;;;;;;5.20;2.00;;;21.70;93.80;;;;;;5032996;28;20463;-51
2022/07/17 10:16:07;;;;;;;2.10;1.30;;;22.20;92.30;;;;;;5037874;28;20489;-53
2022/07/17 10:18:41;;;;;;;4.20;1.77;;;22.50;91.70;;;;;;5030889;28;20520;-55
2022/07/17 10:21:13;;;;;;;1.90;1.53;;;23.00;90.20;;;;;;5037597;28;20656;-50
2022/07/17 10:23:40;;;;;;;2.40;1.60;;;23.50;88.80;;;;;;5037697;28;20532;-54
2022/07/17 10:26:09;;;;;;;5.43;1.67;;;23.60;86.90;;;;;;5037090;28;20437;-51
2022/07/17 10:28:42;;;;;;;4.93;1.43;;;23.20;86.30;;;;;;5037300;28;20580;-52
2022/07/17 10:31:09;;;;;;;1.77;1.47;;;23.30;86.60;;;;;;5036898;28;20437;-53
2022/07/17 10:33:36;;;;;;;3.93;1.53;;;23.40;87.60;;;;;;5037290;28;20473;-51
2022/07/17 10:36:05;;;;;;;5.60;1.60;;;23.60;85.70;;;;;;5037104;28;20449;-52
2022/07/17 10:38:43;;;;;;;4.97;2.17;;;23.50;84.80;;;;;;5036261;28;20507;-49
2022/07/17 10:41:09;;;;;;;3.57;1.97;;;23.10;85.80;;;;;;5037179;28;20421;-50
2022/07/17 10:43:45;;;;;;;3.00;2.10;;;23.40;86.30;;;;;;5036910;28;20464;-48
2022/07/17 10:46:11;;;;;;;4.63;2.70;;;23.70;85.60;;;;;;5036616;28;20441;-47
2022/07/17 10:48:43;;;;;;;2.83;1.77;;;24.20;85.40;;;;;;5036907;28;20548;-52
2022/07/17 10:51:10;;;;;;;5.83;2.10;;;24.50;83.50;;;;;;5036478;28;20437;-52
2022/07/17 10:53:37;;;;;;;5.00;2.23;;;24.80;82.90;;;;;;5036489;28;20524;-50
2022/07/17 10:56:07;;;;;;;6.10;1.83;;;24.90;79.20;;;;;;5036284;28;20441;-53
2022/07/17 10:58:36;;;;;;;4.63;1.60;;;24.90;78.60;;;;;;5036620;28;20469;-52
2022/07/17 11:01:09;;;;;;;3.00;1.60;;;24.70;79.40;;;;;;5036774;28;20464;-56
2022/07/17 11:03:39;;;;;;;2.97;2.07;;;24.50;79.70;;;;;;5036072;28;20736;-51
2022/07/17 11:06:11;;;;;;;4.63;1.80;;;24.50;77.80;;;;;;5036533;28;20505;-50
2022/07/17 11:08:46;;;;;;;2.87;2.33;;;24.50;77.70;;;;;;5036697;28;20437;-55
2022/07/17 11:11:13;;;;;;;3.83;1.90;;;24.30;79.50;;;;;;5036315;28;20817;-52
2022/07/17 11:13:40;;;;;;;3.10;2.00;;;24.00;78.60;;;;;;5036001;28;20445;-58
2022/07/17 11:16:08;;;;;;;4.30;1.97;;;23.60;79.40;;;;;;5036650;28;20472;-52
2022/07/17 11:18:35;;;;;;;3.73;2.30;;;23.40;80.70;;;;;;5036363;28;20433;-52
2022/07/17 11:21:04;;;;;;;6.07;2.30;;;23.30;82.10;;;;;;5035932;28;20434;-52
2022/07/17 11:23:33;;;;;;;2.40;1.57;;;23.10;82.40;;;;;;5036136;28;20449;-52
2022/07/17 11:26:02;;;;;;;6.80;1.70;;;23.00;83.90;;;;;;5036110;28;20517;-48
2022/07/17 11:28:35;;;;;;;2.60;1.63;;;23.10;83.60;;;;;;5036431;28;20457;-49
2022/07/17 11:31:04;;;;;;;8.53;1.97;;;23.10;84.70;;;;;;5036311;28;20505;-51
2022/07/17 11:33:33;;;;;;;3.53;1.40;;;23.30;82.50;;;;;;5035902;28;20520;-49
2022/07/17 11:36:00;;;;;;;5.50;2.20;;;23.40;81.70;;;;;;5035888;28;20493;-50
2022/07/17 11:38:28;;;;;;;5.53;2.30;;;23.50;83.60;;;;;;5035559;28;20437;-52
2022/07/17 11:40:56;;;;;;;3.40;1.67;;;23.80;79.40;;;;;;5035911;28;20501;-53
2022/07/17 11:43:23;;;;;;;2.73;1.43;;;23.80;78.00;;;;;;5036006;28;20465;-49
2022/07/17 11:45:50;;;;;;;3.43;1.70;;;23.80;79.20;;;;;;5036155;28;20492;-52
2022/07/17 11:48:17;;;;;;;3.30;1.93;;;23.80;78.70;;;;;;5035141;28;20503;-49
2022/07/17 11:50:55;;;;;;;3.83;1.60;;;23.80;79.20;;;;;;5035721;28;20476;-49
2022/07/17 11:53:32;;;;;;;5.30;1.93;;;23.70;79.70;;;;;;5036326;28;20433;-57
2022/07/17 11:55:59;;;;;;;4.60;1.83;;;23.60;79.50;;;;;;5035742;28;20479;-51
2022/07/17 11:58:26;;;;;;;2.87;1.80;;;23.40;79.10;;;;;;5035974;28;20445;-55
2022/07/17 12:01:01;;;;;;;4.13;1.63;;;23.20;77.40;;;;;;5035334;28;20480;-52
2022/07/17 12:03:28;;;;;;;3.43;1.80;;;23.00;77.70;;;;;;5035763;28;20410;-55
2022/07/17 12:05:56;;;;;;;2.37;1.97;;;23.00;76.80;;;;;;5035510;28;20532;-55
2022/07/17 12:08:23;;;;;;;4.10;2.00;;;22.90;78.40;;;;;;5035782;28;20536;-51
2022/07/17 12:11:01;;;;;;;4.50;2.03;;;23.00;78.80;;;;;;5035408;28;20469;-53
2022/07/17 12:13:42;;;;;;;2.07;1.50;;;23.10;77.70;;;;;;5035708;28;20497;-53
2022/07/17 12:16:26;;;;;;;5.83;2.57;;;23.20;78.10;;;;;;5035432;28;20480;-57
2022/07/17 12:19:03;;;;;;;6.87;1.73;;;23.20;76.90;;;;;;5035701;28;20485;-53
2022/07/17 12:21:33;;;;;;;3.50;1.90;;;23.40;76.50;;;;;;5035910;28;20421;-52
2022/07/17 12:24:02;;;;;;;3.80;2.23;;;23.50;75.70;;;;;;5035347;28;20438;-57
2022/07/17 12:26:30;;;;;;;5.17;2.00;;;23.50;75.40;;;;;;5035134;28;20477;-52
2022/07/17 12:28:57;;;;;;;3.00;2.03;;;23.40;75.20;;;;;;5035299;28;20504;-52
2022/07/17 12:31:24;;;;;;;7.50;2.57;;;23.30;75.00;;;;;;5035292;28;20465;-53
2022/07/17 12:33:52;;;;;;;3.70;1.43;;;23.30;75.20;;;;;;5035047;28;20452;-55
2022/07/17 12:36:20;;;;;;;4.70;1.80;;;23.20;74.70;;;;;;5035306;28;20461;-52
2022/07/17 12:38:48;;;;;;;3.37;2.07;;;23.20;75.20;;;;;;5035487;28;20496;-50
2022/07/17 12:41:15;;;;;;;7.27;2.30;;;23.30;75.20;;;;;;5035481;28;20524;-55
2022/07/17 12:43:42;;;;;;;5.33;1.83;;;23.40;73.90;;;;;;5035409;28;20433;-51
2022/07/17 12:46:09;;;;;;;4.03;2.70;;;23.50;73.40;;;;;;5035257;28;20529;-51
2022/07/17 12:48:38;;;;;;;3.60;1.73;;;23.60;74.40;;;;;;5023343;28;20476;-54
2022/07/17 12:51:08;;;;;;;3.50;2.10;;;23.60;73.00;;;;;;5026661;28;20465;-51